createdAt,value
2022-08-17T00:01:51.496Z,18.63
2022-08-17T00:04:20.971Z,18.40
2022-08-17T00:06:50.541Z,20.40
2022-08-17T00:09:19.460Z,18.37
2022-08-17T00:12:41.415Z,18.10
2022-08-17T00:14:36.859Z,19.07
2022-08-17T00:17:06.444Z,19.13
2022-08-17T00:19:34.139Z,19.70
2022-08-17T00:22:32.378Z,20.77
2022-08-17T00:24:54.392Z,19.20
2022-08-17T00:27:22.011Z,31.97
2022-08-17T00:29:49.742Z,19.00
2022-08-17T00:33:15.195Z,19.90
2022-08-17T00:35:06.178Z,20.27
2022-08-17T00:37:35.154Z,22.50
2022-08-17T00:40:03.302Z,24.30
2022-08-17T00:42:31.419Z,22.60
2022-08-17T00:44:59.337Z,22.07
2022-08-17T00:47:28.090Z,20.37
2022-08-17T00:49:55.684Z,20.70
2022-08-17T00:52:28.536Z,21.37
2022-08-17T00:54:57.965Z,21.63
2022-08-17T00:57:30.621Z,21.27
2022-08-17T01:00:02.123Z,27.30
2022-08-17T01:02:42.625Z,20.27
2022-08-17T01:05:13.962Z,20.00
2022-08-17T01:07:41.866Z,20.13
2022-08-17T01:10:58.953Z,20.60
2022-08-17T01:13:02.371Z,21.30
2022-08-17T01:15:30.484Z,24.47
2022-08-17T01:17:58.145Z,21.37
2022-08-17T01:20:26.020Z,20.77
2022-08-17T01:22:55.427Z,26.50
2022-08-17T01:25:23.517Z,21.53
2022-08-17T01:27:51.157Z,21.40
2022-08-17T01:30:58.802Z,21.80
2022-08-17T01:33:06.712Z,24.17
2022-08-17T01:35:34.286Z,21.20
2022-08-17T01:38:03.269Z,18.83
2022-08-17T01:40:33.864Z,21.07
2022-08-17T01:43:05.040Z,22.07
2022-08-17T01:45:34.949Z,22.47
2022-08-17T01:48:02.564Z,24.07
2022-08-17T01:50:32.582Z,23.07
2022-08-17T01:53:05.607Z,23.40
2022-08-17T01:55:36.040Z,23.20
2022-08-17T01:58:03.915Z,20.50
2022-08-17T02:01:00.310Z,21.53
2022-08-17T02:03:19.146Z,22.00
2022-08-17T02:05:48.474Z,23.93
2022-08-17T02:08:20.385Z,23.13
2022-08-17T02:10:48.843Z,23.63
2022-08-17T02:13:16.813Z,21.83
2022-08-17T02:15:44.960Z,23.20
2022-08-17T02:18:13.537Z,21.80
2022-08-17T02:20:42.968Z,23.17
2022-08-17T02:23:12.003Z,22.30
2022-08-17T02:25:43.506Z,21.50
2022-08-17T02:28:12.353Z,22.50
2022-08-17T02:30:59.741Z,22.50
2022-08-17T02:33:42.805Z,22.93
2022-08-17T02:36:12.433Z,23.70
2022-08-17T02:38:40.935Z,23.27
2022-08-17T02:41:10.042Z,22.87
2022-08-17T02:43:37.704Z,25.17
2022-08-17T02:46:05.305Z,20.43
2022-08-17T02:48:32.931Z,28.60
2022-08-17T02:51:00.637Z,21.43
2022-08-17T02:53:35.516Z,21.57
2022-08-17T02:56:04.203Z,21.53
2022-08-17T02:58:35.762Z,22.87
2022-08-17T03:01:05.302Z,23.87
2022-08-17T03:03:33.261Z,23.20
2022-08-17T03:06:01.297Z,23.10
2022-08-17T03:08:29.111Z,25.03
2022-08-17T03:10:56.886Z,24.20
2022-08-17T03:13:24.555Z,25.80
2022-08-17T03:15:53.691Z,27.37
2022-08-17T03:18:25.706Z,27.33
2022-08-17T03:20:55.808Z,26.83
2022-08-17T03:23:25.463Z,31.00
2022-08-17T03:25:54.270Z,26.17
2022-08-17T03:28:22.712Z,28.40
2022-08-17T03:30:51.563Z,26.37
2022-08-17T03:33:21.105Z,27.73
2022-08-17T03:35:48.876Z,29.23
2022-08-17T03:38:17.491Z,29.60
2022-08-17T03:40:58.021Z,28.23
2022-08-17T03:43:28.484Z,30.03
2022-08-17T03:46:28.216Z,29.40
2022-08-17T03:49:21.691Z,29.03
2022-08-17T03:52:07.339Z,29.23
2022-08-17T03:54:52.439Z,28.90
2022-08-17T03:57:20.334Z,29.90
2022-08-17T03:59:48.219Z,30.07
2022-08-17T04:02:19.481Z,30.57
2022-08-17T04:04:50.805Z,27.60
2022-08-17T04:07:19.033Z,31.37
2022-08-17T04:09:46.683Z,29.90
2022-08-17T04:12:16.089Z,28.77
2022-08-17T04:14:53.286Z,29.10
2022-08-17T04:17:24.166Z,27.47
2022-08-17T04:19:53.490Z,29.30
2022-08-17T04:22:30.069Z,31.37
2022-08-17T04:25:05.420Z,29.00
2022-08-17T04:27:33.133Z,30.40
2022-08-17T04:30:00.809Z,29.63
2022-08-17T04:33:04.850Z,30.40
2022-08-17T04:35:20.613Z,25.93
2022-08-17T04:37:48.355Z,28.73
2022-08-17T04:40:34.083Z,27.97
2022-08-17T04:43:03.597Z,25.77
2022-08-17T04:45:32.287Z,28.10
2022-08-17T04:48:00.733Z,27.87
2022-08-17T04:50:29.685Z,27.43
2022-08-17T04:52:57.815Z,27.13
2022-08-17T04:55:25.643Z,27.20
2022-08-17T04:57:53.426Z,26.93
2022-08-17T05:00:21.250Z,27.77
2022-08-17T05:02:50.961Z,28.03
2022-08-17T05:05:19.863Z,34.00
2022-08-17T05:07:52.199Z,31.90
2022-08-17T05:10:20.024Z,29.87
2022-08-17T05:12:48.902Z,29.60
2022-08-17T05:15:16.829Z,29.30
2022-08-17T05:17:47.841Z,34.10
2022-08-17T05:20:15.438Z,30.10
2022-08-17T05:22:51.576Z,30.73
2022-08-17T05:25:20.828Z,30.33
2022-08-17T05:27:53.804Z,31.27
2022-08-17T05:30:21.469Z,31.53
2022-08-17T05:32:54.306Z,28.77
2022-08-17T05:35:22.839Z,29.00
2022-08-17T05:37:51.952Z,32.37
2022-08-17T05:40:20.816Z,32.93
2022-08-17T05:42:48.609Z,28.10
2022-08-17T05:45:32.124Z,31.77
2022-08-17T05:48:06.022Z,30.27
2022-08-17T05:50:42.704Z,40.43
2022-08-17T05:53:16.777Z,31.10
2022-08-17T05:55:49.489Z,29.40
2022-08-17T05:58:23.114Z,28.90
2022-08-17T06:00:56.622Z,29.83
2022-08-17T06:03:30.452Z,30.27
2022-08-17T06:06:10.702Z,28.20
2022-08-17T06:08:51.488Z,30.73
2022-08-17T06:11:25.401Z,30.70
2022-08-17T06:14:06.344Z,33.13
2022-08-17T06:16:36.787Z,32.50
2022-08-17T06:19:08.015Z,29.13
2022-08-17T06:21:37.599Z,28.73
2022-08-17T06:24:09.489Z,28.90
2022-08-17T06:26:42.925Z,28.90
2022-08-17T06:29:20.526Z,28.73
2022-08-17T06:31:48.862Z,28.83
2022-08-17T06:34:16.517Z,30.30
2022-08-17T06:36:50.502Z,29.10
2022-08-17T06:39:28.670Z,28.03
2022-08-17T06:42:05.533Z,30.23
2022-08-17T06:44:43.371Z,25.80
2022-08-17T06:47:28.437Z,24.57
2022-08-17T06:50:07.113Z,24.50
2022-08-17T06:52:55.798Z,26.90
2022-08-17T06:55:33.244Z,22.70
2022-08-17T06:58:15.863Z,21.57
2022-08-17T07:00:47.166Z,22.13
2022-08-17T07:03:20.870Z,23.17
2022-08-17T07:05:52.486Z,19.40
2022-08-17T07:08:29.171Z,20.80
2022-08-17T07:11:03.380Z,20.07
2022-08-17T07:13:38.714Z,24.63
2022-08-17T07:16:15.380Z,21.23
2022-08-17T07:18:43.786Z,18.80
2022-08-17T07:21:25.837Z,21.00
2022-08-17T07:24:04.929Z,19.17
2022-08-17T07:26:33.948Z,18.50
2022-08-17T07:29:02.302Z,18.43
2022-08-17T07:31:33.658Z,21.63
2022-08-17T07:34:11.034Z,18.70
2022-08-17T07:36:38.646Z,15.93
2022-08-17T07:39:06.367Z,16.77
2022-08-17T07:41:53.200Z,15.40
2022-08-17T07:44:25.038Z,15.20
2022-08-17T07:47:12.144Z,13.50
2022-08-17T07:49:41.628Z,14.37
2022-08-17T07:52:24.825Z,15.30
2022-08-17T07:54:59.778Z,11.63
2022-08-17T07:57:32.469Z,12.67
2022-08-17T08:00:19.510Z,15.00
2022-08-17T08:03:13.225Z,14.17
2022-08-17T08:05:51.110Z,11.27
2022-08-17T08:08:26.624Z,11.50
2022-08-17T08:11:10.304Z,11.77
2022-08-17T08:13:45.112Z,10.47
2022-08-17T08:16:25.331Z,16.03
2022-08-17T08:18:57.070Z,10.50
2022-08-17T08:21:33.191Z,12.23
2022-08-17T08:24:21.583Z,9.70
2022-08-17T08:26:55.452Z,13.27
2022-08-17T08:29:28.434Z,9.80
2022-08-17T08:32:01.709Z,12.13
2022-08-17T08:34:58.786Z,8.63
2022-08-17T08:37:36.712Z,10.67
2022-08-17T08:40:14.250Z,12.47
2022-08-17T08:42:47.834Z,13.80
2022-08-17T08:45:20.774Z,9.23
2022-08-17T08:48:05.300Z,9.33
2022-08-17T08:50:42.695Z,10.57
2022-08-17T08:53:21.321Z,12.00
2022-08-17T08:55:53.498Z,7.20
2022-08-17T08:58:31.732Z,9.67
2022-08-17T09:01:16.761Z,9.30
2022-08-17T09:04:20.042Z,7.33
2022-08-17T09:06:57.999Z,7.37
2022-08-17T09:09:36.733Z,9.33
2022-08-17T09:12:09.583Z,11.93
2022-08-17T09:14:43.245Z,9.63
2022-08-17T09:17:19.108Z,7.33
2022-08-17T09:19:50.147Z,14.13
2022-08-17T09:22:25.690Z,9.30
2022-08-17T09:24:58.403Z,7.87
2022-08-17T09:27:29.799Z,11.87
2022-08-17T09:30:00.437Z,7.80
2022-08-17T09:32:35.307Z,8.93
2022-08-17T09:35:10.382Z,9.70
2022-08-17T09:37:52.420Z,7.53
2022-08-17T09:40:25.359Z,10.50
2022-08-17T09:42:56.934Z,7.50
2022-08-17T09:45:29.524Z,8.67
2022-08-17T09:48:04.742Z,8.40
2022-08-17T09:51:03.686Z,10.83
2022-08-17T09:53:24.543Z,7.70
2022-08-17T09:56:06.170Z,13.63
2022-08-17T09:58:44.096Z,8.90
2022-08-17T10:01:20.988Z,18.93
2022-08-17T10:04:10.999Z,11.00
2022-08-17T10:06:59.181Z,8.50
2022-08-17T10:09:40.488Z,9.10
2022-08-17T10:12:21.309Z,8.37
2022-08-17T10:14:56.030Z,9.50
2022-08-17T10:17:29.290Z,7.80
2022-08-17T10:20:02.429Z,8.60
2022-08-17T10:22:54.943Z,9.57
2022-08-17T10:25:54.564Z,9.60
2022-08-17T10:28:29.593Z,8.97
2022-08-17T10:31:23.347Z,6.80
2022-08-17T10:33:54.163Z,8.10
2022-08-17T10:36:27.624Z,10.93
2022-08-17T10:39:05.257Z,12.83
2022-08-17T10:41:40.300Z,8.30
2022-08-17T10:44:38.415Z,9.30
2022-08-17T10:47:08.135Z,6.60
2022-08-17T10:49:36.696Z,11.30
2022-08-17T10:52:44.856Z,8.40
2022-08-17T10:55:15.177Z,10.17
2022-08-17T10:57:44.757Z,47.57
2022-08-17T11:00:16.556Z,25.57
2022-08-17T11:02:49.705Z,8.20
2022-08-17T11:05:28.564Z,7.67
2022-08-17T11:08:40.700Z,8.87
2022-08-17T11:11:35.938Z,12.90
2022-08-17T11:14:17.011Z,10.93
2022-08-17T11:16:54.317Z,5.97
2022-08-17T11:19:44.441Z,8.13
2022-08-17T11:22:23.487Z,6.50
2022-08-17T11:24:53.920Z,7.37
2022-08-17T11:27:26.432Z,9.47
2022-08-17T11:30:01.877Z,7.33
2022-08-17T11:32:47.245Z,9.93
2022-08-17T11:35:30.171Z,13.50
2022-08-17T11:38:14.040Z,6.23
2022-08-17T11:41:12.309Z,8.43
2022-08-17T11:44:10.475Z,8.70
2022-08-17T11:47:09.230Z,8.30
2022-08-17T11:50:17.260Z,6.53
2022-08-17T11:52:47.121Z,7.87
2022-08-17T11:55:55.004Z,9.00
2022-08-17T11:58:41.311Z,8.20
2022-08-17T12:01:13.534Z,10.30
2022-08-17T12:03:55.953Z,14.57
2022-08-17T12:06:40.229Z,9.90
2022-08-17T12:09:11.996Z,8.20
2022-08-17T12:11:56.359Z,8.80
2022-08-17T12:15:07.975Z,8.43
2022-08-17T12:17:39.469Z,6.33
2022-08-17T12:20:14.715Z,19.67
2022-08-17T12:22:49.467Z,6.27
2022-08-17T12:25:20.766Z,9.93
2022-08-17T12:28:06.304Z,7.70
2022-08-17T12:30:37.297Z,7.30
2022-08-17T12:33:13.308Z,8.47
2022-08-17T12:35:59.621Z,7.97
2022-08-17T12:38:32.308Z,6.40
2022-08-17T12:41:20.495Z,8.20
2022-08-17T12:43:56.800Z,5.80
2022-08-17T12:46:25.838Z,7.57
2022-08-17T12:48:59.267Z,8.50
2022-08-17T12:51:28.826Z,7.80
2022-08-17T12:53:56.741Z,8.70
2022-08-17T12:56:24.958Z,6.60
2022-08-17T12:58:55.560Z,7.40
2022-08-17T13:01:26.114Z,6.80
2022-08-17T13:03:59.616Z,7.67
2022-08-17T13:06:30.026Z,9.90
2022-08-17T13:08:57.882Z,7.70
2022-08-17T13:11:26.031Z,14.93
2022-08-17T13:13:55.985Z,11.00
2022-08-17T13:16:28.022Z,6.70
2022-08-17T13:18:58.706Z,16.87
2022-08-17T13:21:28.601Z,9.23
2022-08-17T13:24:01.808Z,6.20
2022-08-17T13:26:33.099Z,10.87
2022-08-17T13:29:01.414Z,9.27
2022-08-17T13:31:42.889Z,7.80
2022-08-17T13:34:35.776Z,6.63
2022-08-17T13:37:26.319Z,16.20
2022-08-17T13:39:56.659Z,9.50
2022-08-17T13:42:51.921Z,10.00
2022-08-17T13:45:44.914Z,7.43
2022-08-17T13:48:24.850Z,7.10
2022-08-17T13:51:06.647Z,10.03
2022-08-17T13:53:50.477Z,7.50
2022-08-17T13:56:36.953Z,6.00
2022-08-17T13:59:08.269Z,8.53
2022-08-17T14:01:39.165Z,8.70
2022-08-17T14:04:09.912Z,10.03
2022-08-17T14:06:51.437Z,8.80
2022-08-17T14:09:24.196Z,7.27
2022-08-17T14:11:53.941Z,11.80
2022-08-17T14:14:23.237Z,9.10
2022-08-17T14:16:51.164Z,7.30
2022-08-17T14:19:21.848Z,9.50
2022-08-17T14:21:49.637Z,7.73
2022-08-17T14:24:23.068Z,7.53
2022-08-17T14:26:52.177Z,6.60
2022-08-17T14:29:20.552Z,7.73
2022-08-17T14:31:53.370Z,7.70
2022-08-17T14:34:24.043Z,7.60
2022-08-17T14:36:52.475Z,11.03
2022-08-17T14:39:20.826Z,10.33
2022-08-17T14:41:48.652Z,8.87
2022-08-17T14:44:17.090Z,6.67
2022-08-17T14:46:45.732Z,6.57
2022-08-17T14:49:15.621Z,10.70
2022-08-17T14:51:44.870Z,9.10
2022-08-17T14:54:32.718Z,8.70
2022-08-17T14:57:24.893Z,7.40
2022-08-17T14:59:54.204Z,7.40
2022-08-17T15:02:30.013Z,7.37
2022-08-17T15:05:02.532Z,8.70
2022-08-17T15:07:31.861Z,7.67
2022-08-17T15:10:01.487Z,9.53
2022-08-17T15:12:33.107Z,10.63
2022-08-17T15:15:01.685Z,8.03
2022-08-17T15:17:54.677Z,16.63
2022-08-17T15:20:19.690Z,9.83
2022-08-17T15:22:50.419Z,11.50
2022-08-17T15:25:22.321Z,12.67
2022-08-17T15:27:50.359Z,10.87
2022-08-17T15:30:18.105Z,11.27
2022-08-17T15:32:54.284Z,9.10
2022-08-17T15:35:27.321Z,10.67
2022-08-17T15:37:58.678Z,14.77
2022-08-17T15:40:29.220Z,16.07
2022-08-17T15:42:57.854Z,10.63
2022-08-17T15:45:28.332Z,10.53
2022-08-17T15:47:55.999Z,9.77
2022-08-17T15:50:23.579Z,12.27
2022-08-17T15:52:58.119Z,11.50
2022-08-17T15:55:28.125Z,13.73
2022-08-17T15:57:55.838Z,9.73
2022-08-17T16:00:23.940Z,10.13
2022-08-17T16:03:46.006Z,11.13
2022-08-17T16:05:40.780Z,11.00
2022-08-17T16:08:11.187Z,9.43
2022-08-17T16:10:39.241Z,13.93
2022-08-17T16:13:17.944Z,11.80
2022-08-17T16:15:51.060Z,10.10
2022-08-17T16:18:25.425Z,10.30
2022-08-17T16:20:53.354Z,10.53
2022-08-17T16:23:22.506Z,11.10
2022-08-17T16:25:52.828Z,8.60
2022-08-17T16:28:35.602Z,10.57
2022-08-17T16:31:05.784Z,10.43
2022-08-17T16:33:37.627Z,8.83
2022-08-17T16:36:07.239Z,9.40
2022-08-17T16:38:37.080Z,10.97
2022-08-17T16:41:05.302Z,14.10
2022-08-17T16:43:34.043Z,16.03
2022-08-17T16:46:01.949Z,10.03
2022-08-17T16:48:30.420Z,12.30
2022-08-17T16:51:03.311Z,12.87
2022-08-17T16:53:31.747Z,11.30
2022-08-17T16:56:00.874Z,8.90
2022-08-17T16:58:28.996Z,13.83
2022-08-17T17:00:59.487Z,10.20
2022-08-17T17:03:29.358Z,13.03
2022-08-17T17:06:03.640Z,15.63
2022-08-17T17:08:40.727Z,7.93
2022-08-17T17:11:16.569Z,10.60
2022-08-17T17:13:48.054Z,11.93
2022-08-17T17:16:21.812Z,9.47
2022-08-17T17:18:59.607Z,9.40
2022-08-17T17:21:33.916Z,13.50
2022-08-17T17:24:04.947Z,8.47
2022-08-17T17:26:49.990Z,9.80
2022-08-17T17:29:47.808Z,9.73
2022-08-17T17:32:21.116Z,11.73
2022-08-17T17:34:53.295Z,11.43
2022-08-17T17:37:26.077Z,10.87
2022-08-17T17:39:56.016Z,8.10
2022-08-17T17:42:31.287Z,10.77
2022-08-17T17:45:05.304Z,9.43
2022-08-17T17:47:34.564Z,14.57
2022-08-17T17:50:04.261Z,7.23
2022-08-17T17:52:39.054Z,7.47
2022-08-17T17:55:22.277Z,12.63
2022-08-17T17:57:59.561Z,10.63
2022-08-17T18:00:33.056Z,16.20
2022-08-17T18:03:13.010Z,6.93
2022-08-17T18:05:56.256Z,11.07
2022-08-17T18:08:34.866Z,7.80
2022-08-17T18:11:11.392Z,9.63
2022-08-17T18:14:02.196Z,10.90
2022-08-17T18:16:32.183Z,8.60
2022-08-17T18:19:00.958Z,9.53
2022-08-17T18:21:36.364Z,13.00
2022-08-17T18:24:06.776Z,9.00
2022-08-17T18:26:37.692Z,14.70
2022-08-17T18:29:21.408Z,8.43
2022-08-17T18:31:52.573Z,8.30
2022-08-17T18:34:45.853Z,16.13
2022-08-17T18:37:16.019Z,15.63
2022-08-17T18:39:47.453Z,11.80
2022-08-17T18:42:26.537Z,19.30
2022-08-17T18:44:56.805Z,17.00
2022-08-17T18:47:26.745Z,11.40
2022-08-17T18:49:57.920Z,13.97
2022-08-17T18:52:28.864Z,19.20
2022-08-17T18:55:08.610Z,29.17
2022-08-17T18:57:39.136Z,15.57
2022-08-17T19:00:18.341Z,12.87
2022-08-17T19:02:52.419Z,14.60
2022-08-17T19:05:30.038Z,12.50
2022-08-17T19:08:17.221Z,11.97
2022-08-17T19:10:47.350Z,10.63
2022-08-17T19:13:23.837Z,7.87
2022-08-17T19:16:13.764Z,12.20
2022-08-17T19:18:47.663Z,11.20
2022-08-17T19:21:19.734Z,10.00
2022-08-17T19:23:53.462Z,9.80
2022-08-17T19:26:54.799Z,7.83
2022-08-17T19:29:16.658Z,12.77
2022-08-17T19:31:49.008Z,12.70
2022-08-17T19:34:33.495Z,12.50
2022-08-17T19:37:07.040Z,8.30
2022-08-17T19:39:40.505Z,7.30
2022-08-17T19:42:12.792Z,8.03
2022-08-17T19:44:47.658Z,11.80
2022-08-17T19:47:43.164Z,9.17
2022-08-17T19:50:11.775Z,10.23
2022-08-17T19:52:48.540Z,10.17
2022-08-17T19:55:30.728Z,9.10
2022-08-17T19:58:04.746Z,10.37
2022-08-17T20:00:36.130Z,8.90
2022-08-17T20:03:09.355Z,12.30
2022-08-17T20:06:08.437Z,10.70
2022-08-17T20:08:31.281Z,10.73
2022-08-17T20:11:01.893Z,10.70
2022-08-17T20:13:36.799Z,12.50
2022-08-17T20:16:05.828Z,12.00
2022-08-17T20:18:38.395Z,15.47
2022-08-17T20:21:19.968Z,15.53
2022-08-17T20:23:54.168Z,11.00
2022-08-17T20:26:26.459Z,11.63
2022-08-17T20:29:10.644Z,12.67
2022-08-17T20:31:44.637Z,13.60
2022-08-17T20:34:37.090Z,11.33
2022-08-17T20:37:08.720Z,10.20
2022-08-17T20:39:40.407Z,12.43
2022-08-17T20:42:30.372Z,10.23
2022-08-17T20:45:02.405Z,10.23
2022-08-17T20:47:33.821Z,8.80
2022-08-17T20:50:05.562Z,10.43
2022-08-17T20:52:52.189Z,9.33
2022-08-17T20:55:54.786Z,8.83
2022-08-17T20:58:52.461Z,10.43
2022-08-17T21:01:37.408Z,9.73
2022-08-17T21:04:08.107Z,9.73
2022-08-17T21:07:17.259Z,10.33
2022-08-17T21:09:46.136Z,9.10
2022-08-17T21:12:41.501Z,9.03
2022-08-17T21:15:19.121Z,11.93
2022-08-17T21:17:56.393Z,8.53
2022-08-17T21:20:32.647Z,7.03
2022-08-17T21:23:31.614Z,8.37
2022-08-17T21:26:12.422Z,7.50
2022-08-17T21:29:00.218Z,7.90
2022-08-17T21:31:34.808Z,11.73
2022-08-17T21:34:31.087Z,8.40
2022-08-17T21:37:29.517Z,7.27
2022-08-17T21:40:00.900Z,6.30
2022-08-17T21:42:31.777Z,12.77
2022-08-17T21:45:09.552Z,8.30
2022-08-17T21:47:47.681Z,6.47
2022-08-17T21:50:19.956Z,6.93
2022-08-17T21:52:49.673Z,7.60
2022-08-17T21:55:29.060Z,7.40
2022-08-17T21:58:13.456Z,8.80
2022-08-17T22:00:44.474Z,6.67
2022-08-17T22:03:25.875Z,8.30
2022-08-17T22:05:53.657Z,8.90
2022-08-17T22:08:23.722Z,7.00
2022-08-17T22:11:01.998Z,7.23
2022-08-17T22:13:30.249Z,15.27
2022-08-17T22:16:27.802Z,7.30
2022-08-17T22:18:57.670Z,7.20
2022-08-17T22:21:25.694Z,12.43
2022-08-17T22:24:05.438Z,8.73
2022-08-17T22:27:01.023Z,7.60
2022-08-17T22:29:57.533Z,9.57
2022-08-17T22:32:39.597Z,9.90
2022-08-17T22:35:19.100Z,8.53
2022-08-17T22:37:47.131Z,8.67
2022-08-17T22:40:26.585Z,7.23
2022-08-17T22:42:57.156Z,6.40
2022-08-17T22:45:25.346Z,7.70
2022-08-17T22:47:55.680Z,8.73
2022-08-17T22:50:25.149Z,6.90
2022-08-17T22:53:19.097Z,7.63
2022-08-17T22:56:09.248Z,7.60
2022-08-17T22:59:01.435Z,7.37
2022-08-17T23:01:32.455Z,6.10
2022-08-17T23:04:02.255Z,7.30
2022-08-17T23:06:32.458Z,6.50
2022-08-17T23:09:03.021Z,7.00
2022-08-17T23:11:36.980Z,5.83
2022-08-17T23:14:20.066Z,10.77
2022-08-17T23:16:48.689Z,6.57
2022-08-17T23:19:18.625Z,7.33
2022-08-17T23:21:46.673Z,5.77
2022-08-17T23:24:18.592Z,5.00
2022-08-17T23:26:46.384Z,6.00
2022-08-17T23:29:14.194Z,6.97
2022-08-17T23:31:43.349Z,4.67
2022-08-17T23:34:13.930Z,5.40
2022-08-17T23:36:52.818Z,4.77
2022-08-17T23:39:27.863Z,10.50
2022-08-17T23:41:56.905Z,7.27
2022-08-17T23:44:25.096Z,4.60
2022-08-17T23:46:55.088Z,5.40
2022-08-17T23:49:24.356Z,5.80
2022-08-17T23:51:53.728Z,4.93
2022-08-17T23:54:28.444Z,4.40
2022-08-17T23:56:56.326Z,4.77
2022-08-17T23:59:25.261Z,5.07
